Union, Illinois
Current Conditions -  °F | °C
As of 6:35 PM on Friday 24 Oct 2014 (Local Time) from KDKB Reporting Station
Scattered Clouds Scattered Clouds  
Wind Chill: 54°   Ceiling: Unl
Heat Index: 54°   Visibility: 10mi
Dew Point: 42°   Wind: 6mph
Humidity: 65%   Direction: 190°S
Pressure: 29.96"   Gusts: NA
Location:  42.23°N, 88.54°W
Report Text: KDKB 242335Z AUTO 19005KT 10SM SCT085 12/06 A2996 RMK AO2 T01220057
Loading
Personal Weather Stations






























Interactive Weather Map
Tropical Storm Tracking
New forecast layout! Learn more

10-Day Weather Forecast

Advertisements
Track Severe Weather on mobile